Wetterdaten: Woche 04.03.13 - 10.03.13 (KW10)
Datum Zeit Temp. A. Feuchte A. Luftdruck Regen Wind Richtung Taupunkt Windchill Windben
04.03.2013 00:00 -3,0 C 95 % 1023,8 hPa 0,0 l/m 0,0 km/h (0 Bft) N -3,7 C -3,0 C 0,0 km/h (0 Bft)
04.03.2013 01:00 -3,4 C 95 % 1023,9 hPa 0,0 l/m 0,0 km/h (0 Bft) N -4,1 C -3,4 C 0,0 km/h (0 Bft)
04.03.2013 02:00 -3,8 C 95 % 1023,9 hPa 0,0 l/m 0,0 km/h (0 Bft) N -4,4 C -3,8 C 0,0 km/h (0 Bft)
04.03.2013 03:00 -4,1 C 96 % 1023,8 hPa 0,0 l/m 0,0 km/h (0 Bft) N -4,6 C -4,1 C 0,0 km/h (0 Bft)
04.03.2013 04:00 -4,1 C 96 % 1023,8 hPa 0,0 l/m 0,2 km/h (0 Bft) SW -4,7 C -4,1 C 0,8 km/h (0 Bft)
04.03.2013 05:00 -4,2 C 96 % 1023,7 hPa 0,0 l/m 0,0 km/h (0 Bft) N -4,8 C -4,2 C 0,1 km/h (0 Bft)
04.03.2013 06:00 -5,0 C 96 % 1023,7 hPa 0,0 l/m 0,0 km/h (0 Bft) N -5,5 C -5,0 C 0,0 km/h (0 Bft)
04.03.2013 07:00 -4,8 C 96 % 1023,7 hPa 0,0 l/m 0,2 km/h (0 Bft) O-SO -5,3 C -4,8 C 0,4 km/h (0 Bft)
04.03.2013 08:00 -2,1 C 96 % 1024,1 hPa 0,0 l/m 0,1 km/h (0 Bft) N -2,7 C -2,1 C 0,5 km/h (0 Bft)
04.03.2013 09:00 0,2 C 95 % 1024,3 hPa 0,0 l/m 0,3 km/h (0 Bft) O-NO -0,5 C 0,2 C 0,7 km/h (0 Bft)
04.03.2013 10:00 2,2 C 97 % 1024,0 hPa 0,2 l/m 0,7 km/h (0 Bft) NO 1,8 C 2,2 C 2,8 km/h (1 Bft)
04.03.2013 11:00 3,9 C 96 % 1023,7 hPa 0,0 l/m 2,7 km/h (1 Bft) O 3,3 C 3,9 C 6,6 km/h (2 Bft)
04.03.2013 12:00 6,5 C 77 % 1023,3 hPa 0,0 l/m 4,2 km/h (1 Bft) O 2,7 C 6,5 C 8,4 km/h (2 Bft)
04.03.2013 13:00 7,8 C 64 % 1022,5 hPa 0,0 l/m 5,6 km/h (2 Bft) O-SO 1,5 C 7,8 C 11,8 km/h (2 Bft)
04.03.2013 14:00 8,6 C 62 % 1021,7 hPa 0,0 l/m 6,6 km/h (2 Bft) O-SO 1,8 C 8,2 C 12,9 km/h (3 Bft)
04.03.2013 15:00 8,8 C 61 % 1021,0 hPa 0,0 l/m 6,8 km/h (2 Bft) O-SO 1,6 C 8,4 C 13,7 km/h (3 Bft)
04.03.2013 16:00 8,4 C 61 % 1020,5 hPa 0,0 l/m 5,8 km/h (2 Bft) O-SO 1,4 C 8,2 C 12,4 km/h (2 Bft)
04.03.2013 17:00 7,3 C 64 % 1020,2 hPa 0,0 l/m 3,8 km/h (1 Bft) O 0,9 C 7,3 C 9,4 km/h (2 Bft)
04.03.2013 18:00 5,0 C 74 % 1020,1 hPa 0,0 l/m 1,0 km/h (0 Bft) SO 0,6 C 5,0 C 3,2 km/h (1 Bft)
04.03.2013 19:00 3,0 C 81 % 1020,0 hPa 0,0 l/m 0,4 km/h (0 Bft) N 0,1 C 3,0 C 1,9 km/h (1 Bft)
04.03.2013 20:00 1,1 C 88 % 1019,6 hPa 0,0 l/m 0,0 km/h (0 Bft) N -0,7 C 1,1 C 0,4 km/h (0 Bft)
04.03.2013 21:00 1,0 C 88 % 1019,5 hPa 0,0 l/m 0,5 km/h (0 Bft) O-SO -0,7 C 1,0 C 1,9 km/h (1 Bft)
04.03.2013 22:00 2,5 C 82 % 1018,9 hPa 0,0 l/m 2,2 km/h (1 Bft) O-SO -0,3 C 2,5 C 5,5 km/h (2 Bft)
04.03.2013 23:00 1,2 C 85 % 1018,1 hPa 0,0 l/m 0,1 km/h (0 Bft) N -1,1 C 1,2 C 0,8 km/h (0 Bft)
05.03.2013 00:00 0,1 C 88 % 1017,5 hPa 0,0 l/m 0,0 km/h (0 Bft) N -1,6 C 0,1 C 0,0 km/h (0 Bft)
05.03.2013 01:00 -0,8 C 90 % 1017,3 hPa 0,0 l/m 0,3 km/h (0 Bft) O-SO -2,2 C -0,8 C 1,1 km/h (0 Bft)
05.03.2013 02:00 -0,2 C 89 % 1016,6 hPa 0,0 l/m 1,5 km/h (1 Bft) O-SO -1,8 C -0,2 C 4,4 km/h (1 Bft)
05.03.2013 03:00 -0,8 C 89 % 1016,0 hPa 0,0 l/m 0,5 km/h (0 Bft) SO -2,4 C -0,8 C 1,2 km/h (1 Bft)
05.03.2013 04:00 -2,3 C 92 % 1015,4 hPa 0,0 l/m 0,1 km/h (0 Bft) SO -3,3 C -2,3 C 0,4 km/h (0 Bft)
05.03.2013 05:00 -1,3 C 91 % 1014,9 hPa 0,0 l/m 1,1 km/h (1 Bft) S-SO -2,7 C -1,3 C 2,4 km/h (1 Bft)
05.03.2013 06:00 -1,8 C 91 % 1014,6 hPa 0,0 l/m 1,2 km/h (1 Bft) O -3,1 C -1,8 C 3,2 km/h (1 Bft)
05.03.2013 07:00 -0,8 C 89 % 1014,6 hPa 0,0 l/m 0,5 km/h (0 Bft) O-SO -2,4 C -0,8 C 1,5 km/h (1 Bft)
05.03.2013 08:00 -0,0 C 89 % 1014,6 hPa 0,0 l/m 0,0 km/h (0 Bft) N -1,6 C -0,0 C 0,0 km/h (0 Bft)
05.03.2013 09:00 2,9 C 81 % 1014,4 hPa 0,0 l/m 0,2 km/h (0 Bft) O -0,1 C 2,9 C 0,5 km/h (0 Bft)
05.03.2013 10:00 5,4 C 70 % 1014,0 hPa 0,0 l/m 1,5 km/h (1 Bft) O 0,5 C 5,4 C 3,1 km/h (1 Bft)
05.03.2013 11:00 7,6 C 62 % 1013,6 hPa 0,0 l/m 1,5 km/h (1 Bft) O-NO 0,8 C 7,6 C 3,7 km/h (1 Bft)
05.03.2013 12:00 9,8 C 54 % 1012,8 hPa 0,0 l/m 2,7 km/h (1 Bft) O 1,0 C 9,8 C 5,9 km/h (2 Bft)
05.03.2013 13:00 11,0 C 49 % 1011,6 hPa 0,0 l/m 3,4 km/h (1 Bft) O 0,8 C 11,0 C 7,2 km/h (2 Bft)
05.03.2013 14:00 12,5 C 44 % 1010,9 hPa 0,0 l/m 4,5 km/h (1 Bft) O 0,6 C 12,5 C 9,5 km/h (2 Bft)
05.03.2013 15:00 12,8 C 46 % 1010,5 hPa 0,0 l/m 4,6 km/h (1 Bft) O 1,6 C 12,8 C 9,1 km/h (2 Bft)
05.03.2013 16:00 11,9 C 55 % 1010,1 hPa 0,0 l/m 4,3 km/h (1 Bft) O-SO 3,0 C 11,9 C 9,1 km/h (2 Bft)
05.03.2013 17:00 10,2 C 63 % 1009,8 hPa 0,0 l/m 4,3 km/h (1 Bft) SO 3,5 C 10,2 C 9,8 km/h (2 Bft)
05.03.2013 18:00 7,6 C 72 % 1009,8 hPa 0,0 l/m 1,8 km/h (1 Bft) SO 2,8 C 7,6 C 5,1 km/h (1 Bft)
05.03.2013 19:00 4,5 C 81 % 1009,7 hPa 0,0 l/m 0,2 km/h (0 Bft) SO 1,6 C 4,5 C 0,7 km/h (0 Bft)
05.03.2013 20:00 2,4 C 87 % 1009,3 hPa 0,0 l/m 0,0 km/h (0 Bft) N 0,4 C 2,4 C 0,0 km/h (0 Bft)
05.03.2013 21:00 2,3 C 88 % 1009,0 hPa 0,0 l/m 0,0 km/h (0 Bft) N 0,5 C 2,3 C 0,0 km/h (0 Bft)
05.03.2013 22:00 2,3 C 88 % 1008,7 hPa 0,0 l/m 0,0 km/h (0 Bft) N 0,5 C 2,3 C 0,0 km/h (0 Bft)
05.03.2013 23:00 2,3 C 88 % 1008,6 hPa 0,0 l/m 0,0 km/h (0 Bft) N 0,5 C 2,3 C 0,0 km/h (0 Bft)
06.03.2013 00:00 2,3 C 88 % 1008,2 hPa 0,0 l/m 0,0 km/h (0 Bft) N 0,5 C 2,3 C 0,0 km/h (0 Bft)
06.03.2013 01:00 2,3 C 88 % 1007,8 hPa 0,0 l/m 0,0 km/h (0 Bft) N 0,5 C 2,3 C 0,0 km/h (0 Bft)
06.03.2013 02:00 2,3 C 88 % 1007,5 hPa 0,0 l/m 0,0 km/h (0 Bft) N 0,5 C 2,3 C 0,0 km/h (0 Bft)
06.03.2013 03:00 2,3 C 88 % 1007,0 hPa 0,0 l/m 0,0 km/h (0 Bft) N 0,5 C 2,3 C 0,0 km/h (0 Bft)
06.03.2013 04:00 2,3 C 88 % 1006,9 hPa 0,0 l/m 0,0 km/h (0 Bft) N 0,5 C 2,3 C 0,0 km/h (0 Bft)
06.03.2013 05:00 -3,5 C 96 % 1006,9 hPa 0,0 l/m 0,0 km/h (0 Bft) N -4,1 C -3,5 C 0,0 km/h (0 Bft)
06.03.2013 06:00 -3,6 C 96 % 1006,6 hPa 0,0 l/m 0,0 km/h (0 Bft) N -4,2 C -3,6 C 0,0 km/h (0 Bft)
06.03.2013 07:00 -3,1 C 96 % 1007,0 hPa 0,0 l/m 0,0 km/h (0 Bft) N -3,6 C -3,1 C 0,0 km/h (0 Bft)
06.03.2013 08:00 -1,7 C 96 % 1007,3 hPa 0,0 l/m 0,0 km/h (0 Bft) N -2,3 C -1,7 C 0,0 km/h (0 Bft)
06.03.2013 09:00 0,9 C 95 % 1007,1 hPa 0,0 l/m 0,1 km/h (0 Bft) N 0,2 C 0,9 C 0,5 km/h (0 Bft)
06.03.2013 10:00 6,0 C 85 % 1006,5 hPa 0,0 l/m 0,2 km/h (0 Bft) O 3,6 C 6,0 C 0,7 km/h (0 Bft)
06.03.2013 11:00 10,1 C 63 % 1006,3 hPa 0,0 l/m 2,4 km/h (1 Bft) O 3,2 C 10,1 C 5,7 km/h (2 Bft)
06.03.2013 12:00 11,9 C 50 % 1006,1 hPa 0,0 l/m 3,1 km/h (1 Bft) SO 1,8 C 11,9 C 6,7 km/h (2 Bft)
06.03.2013 13:00 12,9 C 46 % 1005,5 hPa 0,0 l/m 2,0 km/h (1 Bft) NO 1,6 C 12,9 C 4,7 km/h (1 Bft)
06.03.2013 14:00 14,0 C 47 % 1005,0 hPa 0,0 l/m 2,7 km/h (1 Bft) NO 2,8 C 13,9 C 4,9 km/h (1 Bft)
06.03.2013 15:00 13,3 C 56 % 1004,8 hPa 0,0 l/m 7,7 km/h (2 Bft) NO 4,7 C 12,4 C 11,2 km/h (2 Bft)
06.03.2013 16:00 12,1 C 60 % 1004,7 hPa 0,0 l/m 6,9 km/h (2 Bft) NO 4,5 C 11,6 C 10,9 km/h (2 Bft)
06.03.2013 17:00 10,5 C 64 % 1004,7 hPa 0,0 l/m 3,7 km/h (1 Bft) O-NO 4,0 C 10,5 C 6,7 km/h (2 Bft)
06.03.2013 18:00 7,8 C 73 % 1005,0 hPa 0,0 l/m 1,3 km/h (1 Bft) O-NO 3,2 C 7,8 C 2,5 km/h (1 Bft)
06.03.2013 19:00 5,1 C 83 % 1005,6 hPa 0,0 l/m 0,0 km/h (0 Bft) N 2,4 C 5,1 C 0,1 km/h (0 Bft)
06.03.2013 20:00 3,3 C 88 % 1005,6 hPa 0,0 l/m 0,0 km/h (0 Bft) N 1,5 C 3,3 C 0,0 km/h (0 Bft)
06.03.2013 21:00 2,2 C 91 % 1005,8 hPa 0,0 l/m 0,6 km/h (0 Bft) N 0,8 C 2,2 C 1,5 km/h (1 Bft)
06.03.2013 22:00 1,4 C 92 % 1005,5 hPa 0,0 l/m 1,2 km/h (1 Bft) N-NW 0,3 C 1,4 C 1,7 km/h (1 Bft)
06.03.2013 23:00 2,3 C 90 % 1005,1 hPa 0,0 l/m 2,5 km/h (1 Bft) N-NO 0,8 C 2,3 C 3,9 km/h (1 Bft)
07.03.2013 00:00 2,1 C 90 % 1004,6 hPa 0,0 l/m 3,7 km/h (1 Bft) NO 0,6 C 2,1 C 6,1 km/h (2 Bft)
07.03.2013 01:00 1,8 C 89 % 1004,8 hPa 0,0 l/m 3,0 km/h (1 Bft) NO 0,2 C 1,8 C 4,5 km/h (1 Bft)
07.03.2013 02:00 1,2 C 91 % 1004,6 hPa 0,0 l/m 2,5 km/h (1 Bft) NO -0,2 C 1,2 C 4,0 km/h (1 Bft)
07.03.2013 03:00 1,6 C 90 % 1004,2 hPa 0,0 l/m 4,7 km/h (1 Bft) NO 0,2 C 1,6 C 7,6 km/h (2 Bft)
07.03.2013 04:00 1,7 C 90 % 1004,0 hPa 0,0 l/m 6,4 km/h (2 Bft) NO 0,2 C 1,4 C 8,9 km/h (2 Bft)
07.03.2013 05:00 1,9 C 89 % 1004,3 hPa 0,0 l/m 5,8 km/h (2 Bft) NO 0,2 C 1,8 C 11,3 km/h (2 Bft)
07.03.2013 06:00 1,7 C 89 % 1004,6 hPa 0,0 l/m 6,9 km/h (2 Bft) NO 0,1 C 1,0 C 11,3 km/h (2 Bft)
07.03.2013 07:00 1,6 C 89 % 1004,7 hPa 0,0 l/m 8,5 km/h (2 Bft) NO 0,0 C -0,4 C 14,5 km/h (3 Bft)
07.03.2013 08:00 2,2 C 88 % 1005,0 hPa 0,0 l/m 8,7 km/h (2 Bft) O-NO 0,3 C 0,0 C 15,2 km/h (3 Bft)
07.03.2013 09:00 3,1 C 85 % 1005,2 hPa 0,0 l/m 11,0 km/h (2 Bft) O-NO 0,9 C -0,7 C 18,6 km/h (3 Bft)
07.03.2013 10:00 4,4 C 82 % 1005,2 hPa 0,0 l/m 11,8 km/h (2 Bft) O-NO 1,6 C 0,2 C 20,5 km/h (4 Bft)
07.03.2013 11:00 5,6 C 79 % 1005,3 hPa 0,0 l/m 11,6 km/h (2 Bft) O-NO 2,2 C 1,7 C 20,0 km/h (4 Bft)
07.03.2013 12:00 6,6 C 76 % 1005,0 hPa 0,0 l/m 13,8 km/h (3 Bft) O-NO 2,6 C 1,7 C 23,2 km/h (4 Bft)
07.03.2013 13:00 7,3 C 73 % 1004,9 hPa 0,0 l/m 12,5 km/h (2 Bft) O 2,9 C 3,2 C 21,4 km/h (4 Bft)
07.03.2013 14:00 7,9 C 72 % 1004,9 hPa 0,0 l/m 9,3 km/h (2 Bft) O-NO 3,2 C 5,8 C 17,2 km/h (3 Bft)
07.03.2013 15:00 7,7 C 71 % 1005,0 hPa 0,0 l/m 16,4 km/h (3 Bft) O 2,8 C 2,0 C 18,8 km/h (3 Bft)
07.03.2013 16:00 7,7 C 71 % 1005,2 hPa 0,0 l/m 19,3 km/h (3 Bft) O 2,8 C 0,6 C 19,3 km/h (3 Bft)
07.03.2013 17:00 6,6 C 75 % 1005,3 hPa 0,0 l/m 10,6 km/h (2 Bft) O-NO 2,6 C 3,6 C 13,4 km/h (3 Bft)
07.03.2013 18:00 6,5 C 76 % 1005,7 hPa 0,0 l/m 9,7 km/h (2 Bft) O-NO 2,6 C 3,9 C 9,7 km/h (2 Bft)
07.03.2013 19:00 6,5 C 76 % 1006,3 hPa 0,0 l/m 9,7 km/h (2 Bft) O-NO 2,6 C 3,9 C 9,7 km/h (2 Bft)
07.03.2013 20:00 6,5 C 76 % 1006,5 hPa 0,0 l/m 9,7 km/h (2 Bft) O-NO 2,6 C 3,9 C 9,7 km/h (2 Bft)
07.03.2013 21:00 6,5 C 76 % 1006,5 hPa 0,0 l/m 9,7 km/h (2 Bft) O-NO 2,6 C 3,9 C 9,7 km/h (2 Bft)
07.03.2013 22:00 6,5 C 76 % 1006,7 hPa 0,0 l/m 9,7 km/h (2 Bft) O-NO 2,6 C 3,9 C 9,7 km/h (2 Bft)
07.03.2013 23:00 6,5 C 76 % 1006,6 hPa 0,0 l/m 9,7 km/h (2 Bft) O-NO 2,6 C 3,9 C 9,7 km/h (2 Bft)
08.03.2013 00:00 6,5 C 76 % 1006,4 hPa 0,0 l/m 9,7 km/h (2 Bft) O-NO 2,6 C 3,9 C 9,7 km/h (2 Bft)
08.03.2013 01:00 6,5 C 76 % 1006,5 hPa 0,0 l/m 9,7 km/h (2 Bft) O-NO 2,6 C 3,9 C 9,7 km/h (2 Bft)
08.03.2013 02:00 6,5 C 76 % 1006,4 hPa 0,0 l/m 9,7 km/h (2 Bft) O-NO 2,6 C 3,9 C 9,7 km/h (2 Bft)
08.03.2013 03:00 6,5 C 76 % 1006,3 hPa 0,0 l/m 9,7 km/h (2 Bft) O-NO 2,6 C 3,9 C 9,7 km/h (2 Bft)
08.03.2013 04:00 6,5 C 76 % 1006,4 hPa 0,0 l/m 9,7 km/h (2 Bft) O-NO 2,6 C 3,9 C 9,7 km/h (2 Bft)
08.03.2013 05:00 6,5 C 76 % 1006,6 hPa 0,0 l/m 9,7 km/h (2 Bft) O-NO 2,6 C 3,9 C 9,7 km/h (2 Bft)
08.03.2013 06:00 6,5 C 76 % 1006,5 hPa 0,0 l/m 9,7 km/h (2 Bft) O-NO 2,6 C 3,9 C 9,7 km/h (2 Bft)
08.03.2013 07:00 5,6 C 77 % 1006,6 hPa 0,0 l/m 9,7 km/h (2 Bft) O-NO 1,9 C 2,9 C 10,9 km/h (2 Bft)
08.03.2013 08:00 1,0 C 91 % 1006,8 hPa 0,0 l/m 10,7 km/h (2 Bft) O -0,3 C -2,9 C 14,2 km/h (3 Bft)
08.03.2013 09:00 1,1 C 91 % 1007,2 hPa 0,0 l/m 9,8 km/h (2 Bft) O -0,2 C -2,0 C 18,4 km/h (3 Bft)
08.03.2013 10:00 1,2 C 92 % 1007,3 hPa 0,2 l/m 10,8 km/h (2 Bft) O -0,0 C -2,8 C 18,6 km/h (3 Bft)
08.03.2013 11:00 1,1 C 92 % 1007,3 hPa 0,0 l/m 12,1 km/h (2 Bft) O-NO -0,0 C -3,7 C 17,0 km/h (3 Bft)
08.03.2013 12:00 1,1 C 92 % 1007,3 hPa 0,0 l/m 11,3 km/h (2 Bft) O-NO -0,1 C -3,2 C 11,3 km/h (2 Bft)
08.03.2013 13:00 1,1 C 92 % 1007,1 hPa 0,0 l/m 11,3 km/h (2 Bft) O-NO -0,1 C -3,2 C 11,3 km/h (2 Bft)
08.03.2013 14:00 1,1 C 92 % 1007,2 hPa 0,0 l/m 11,3 km/h (2 Bft) O-NO -0,1 C -3,2 C 11,3 km/h (2 Bft)
08.03.2013 15:00 1,1 C 92 % 1007,1 hPa 0,0 l/m 11,3 km/h (2 Bft) O-NO -0,1 C -3,2 C 11,3 km/h (2 Bft)
08.03.2013 16:00 1,1 C 92 % 1007,4 hPa 0,0 l/m 11,3 km/h (2 Bft) O-NO -0,1 C -3,2 C 11,3 km/h (2 Bft)
08.03.2013 17:00 1,1 C 92 % 1007,7 hPa 0,0 l/m 11,3 km/h (2 Bft) O-NO -0,1 C -3,2 C 11,3 km/h (2 Bft)
08.03.2013 18:00 0,9 C 90 % 1008,0 hPa 0,0 l/m 11,7 km/h (2 Bft) O-NO -0,5 C -3,7 C 14,8 km/h (3 Bft)
08.03.2013 19:00 0,5 C 87 % 1008,0 hPa 0,0 l/m 11,2 km/h (2 Bft) O -1,4 C -3,7 C 19,4 km/h (3 Bft)
08.03.2013 20:00 0,4 C 87 % 1008,0 hPa 0,0 l/m 10,2 km/h (2 Bft) O -1,5 C -3,1 C 18,4 km/h (3 Bft)
08.03.2013 21:00 0,3 C 87 % 1007,9 hPa 0,0 l/m 10,0 km/h (2 Bft) O -1,6 C -3,0 C 19,3 km/h (3 Bft)
08.03.2013 22:00 0,4 C 86 % 1008,0 hPa 0,0 l/m 10,0 km/h (2 Bft) O -1,7 C -3,0 C 17,7 km/h (3 Bft)
08.03.2013 23:00 0,4 C 86 % 1007,9 hPa 0,0 l/m 9,6 km/h (2 Bft) O -1,7 C -2,6 C 16,8 km/h (3 Bft)
09.03.2013 00:00 0,4 C 86 % 1007,7 hPa 0,0 l/m 9,4 km/h (2 Bft) O -1,7 C -2,5 C 16,2 km/h (3 Bft)
09.03.2013 01:00 0,4 C 86 % 1007,4 hPa 0,0 l/m 10,3 km/h (2 Bft) O -1,7 C -3,2 C 17,2 km/h (3 Bft)
09.03.2013 02:00 0,3 C 87 % 1007,3 hPa 0,0 l/m 9,2 km/h (2 Bft) O -1,6 C -2,4 C 16,5 km/h (3 Bft)
09.03.2013 03:00 0,3 C 87 % 1006,8 hPa 0,0 l/m 11,8 km/h (2 Bft) O -1,6 C -4,4 C 21,3 km/h (4 Bft)
09.03.2013 04:00 0,2 C 88 % 1006,3 hPa 0,0 l/m 15,7 km/h (3 Bft) O -1,5 C -7,1 C 17,0 km/h (3 Bft)
09.03.2013 05:00 0,2 C 88 % 1006,3 hPa 0,0 l/m 16,1 km/h (3 Bft) O -1,5 C -7,4 C 16,1 km/h (3 Bft)
09.03.2013 06:00 0,1 C 88 % 1006,1 hPa 0,0 l/m 14,2 km/h (3 Bft) O -1,6 C -6,2 C 17,2 km/h (3 Bft)
09.03.2013 07:00 -0,2 C 89 % 1005,9 hPa 0,0 l/m 11,4 km/h (2 Bft) O-NO -1,8 C -4,7 C 20,8 km/h (4 Bft)
09.03.2013 08:00 -0,3 C 91 % 1005,9 hPa 0,0 l/m 11,7 km/h (2 Bft) O -1,7 C -5,1 C 20,9 km/h (4 Bft)
09.03.2013 09:00 -0,3 C 92 % 1006,0 hPa 0,2 l/m 10,6 km/h (2 Bft) O -1,5 C -4,3 C 17,7 km/h (3 Bft)
09.03.2013 10:00 -0,3 C 92 % 1005,7 hPa 0,4 l/m 10,7 km/h (2 Bft) O -1,4 C -4,3 C 18,2 km/h (3 Bft)
09.03.2013 11:00 -0,2 C 92 % 1005,5 hPa 0,6 l/m 9,1 km/h (2 Bft) O -1,3 C -2,8 C 16,2 km/h (3 Bft)
09.03.2013 12:00 -0,1 C 93 % 1005,2 hPa 0,4 l/m 7,7 km/h (2 Bft) O -1,1 C -1,5 C 13,4 km/h (3 Bft)
09.03.2013 13:00 -0,1 C 93 % 1004,8 hPa 0,4 l/m 7,4 km/h (2 Bft) O -1,0 C -1,0 C 13,0 km/h (3 Bft)
09.03.2013 14:00 0,1 C 93 % 1004,3 hPa 0,6 l/m 7,4 km/h (2 Bft) O -0,9 C -0,9 C 14,1 km/h (3 Bft)
09.03.2013 15:00 0,2 C 94 % 1004,0 hPa 0,0 l/m 7,4 km/h (2 Bft) O -0,7 C -0,8 C 13,7 km/h (3 Bft)
09.03.2013 16:00 0,2 C 94 % 1003,8 hPa 0,4 l/m 7,2 km/h (2 Bft) O-NO -0,7 C -0,7 C 12,1 km/h (2 Bft)
09.03.2013 17:00 0,1 C 94 % 1003,6 hPa 1,0 l/m 6,8 km/h (2 Bft) O -0,7 C -0,5 C 12,4 km/h (2 Bft)
09.03.2013 18:00 0,1 C 94 % 1003,6 hPa 1,0 l/m 6,9 km/h (2 Bft) O -0,7 C -0,5 C 12,5 km/h (2 Bft)
09.03.2013 19:00 0,1 C 94 % 1003,5 hPa 0,6 l/m 6,6 km/h (2 Bft) O -0,7 C -0,3 C 10,6 km/h (2 Bft)
09.03.2013 20:00 0,1 C 94 % 1003,0 hPa 0,2 l/m 6,3 km/h (2 Bft) O -0,7 C -0,1 C 11,2 km/h (2 Bft)
09.03.2013 21:00 0,1 C 94 % 1002,6 hPa 0,2 l/m 6,0 km/h (2 Bft) O -0,8 C -0,0 C 10,1 km/h (2 Bft)
09.03.2013 22:00 -0,0 C 94 % 1002,3 hPa 0,0 l/m 5,8 km/h (2 Bft) O -0,9 C -0,0 C 10,6 km/h (2 Bft)
09.03.2013 23:00 -0,1 C 94 % 1001,9 hPa 0,4 l/m 5,2 km/h (1 Bft) O -0,9 C -0,1 C 9,3 km/h (2 Bft)
10.03.2013 00:00 -0,2 C 94 % 1001,4 hPa 0,0 l/m 5,1 km/h (1 Bft) O -1,0 C -0,2 C 8,9 km/h (2 Bft)
10.03.2013 01:00 -0,3 C 94 % 1001,1 hPa 0,0 l/m 4,2 km/h (1 Bft) O-NO -1,1 C -0,3 C 7,9 km/h (2 Bft)
10.03.2013 02:00 -0,4 C 94 % 1000,9 hPa 0,0 l/m 3,2 km/h (1 Bft) O-NO -1,2 C -0,4 C 6,4 km/h (2 Bft)
10.03.2013 03:00 -0,7 C 95 % 1000,4 hPa 0,0 l/m 3,4 km/h (1 Bft) NO -1,4 C -0,7 C 5,9 km/h (2 Bft)
10.03.2013 04:00 -1,1 C 95 % 1000,2 hPa 0,0 l/m 5,3 km/h (1 Bft) NO -1,8 C -1,1 C 7,9 km/h (2 Bft)
10.03.2013 05:00 -1,5 C 96 % 1000,2 hPa 0,0 l/m 5,9 km/h (2 Bft) NO -2,1 C -1,6 C 9,3 km/h (2 Bft)
10.03.2013 06:00 -1,8 C 96 % 1000,3 hPa 0,0 l/m 7,7 km/h (2 Bft) NO -2,4 C -3,2 C 11,3 km/h (2 Bft)
10.03.2013 07:00 -2,4 C 96 % 1000,7 hPa 0,0 l/m 8,1 km/h (2 Bft) NO -2,9 C -4,2 C 11,2 km/h (2 Bft)
10.03.2013 08:00 -2,7 C 95 % 1001,1 hPa 0,0 l/m 8,6 km/h (2 Bft) NO -3,3 C -5,1 C 12,5 km/h (2 Bft)
10.03.2013 09:00 -2,6 C 95 % 1001,4 hPa 0,0 l/m 9,1 km/h (2 Bft) NO -3,3 C -5,4 C 13,0 km/h (3 Bft)
10.03.2013 10:00 -2,5 C 94 % 1001,9 hPa 0,0 l/m 9,5 km/h (2 Bft) NO -3,4 C -5,8 C 14,1 km/h (3 Bft)
10.03.2013 11:00 -2,5 C 93 % 1002,3 hPa 0,0 l/m 8,9 km/h (2 Bft) NO -3,5 C -5,2 C 13,4 km/h (3 Bft)
10.03.2013 12:00 -2,5 C 92 % 1002,8 hPa 0,0 l/m 9,5 km/h (2 Bft) NO -3,5 C -5,7 C 13,7 km/h (3 Bft)
10.03.2013 13:00 -2,6 C 91 % 1002,8 hPa 0,0 l/m 8,5 km/h (2 Bft) NO -3,8 C -4,8 C 12,6 km/h (3 Bft)
10.03.2013 14:00 -2,6 C 92 % 1002,9 hPa 0,0 l/m 8,3 km/h (2 Bft) NO -3,8 C -4,7 C 12,5 km/h (2 Bft)
10.03.2013 15:00 -3,1 C 93 % 1003,3 hPa 0,0 l/m 9,2 km/h (2 Bft) NO -4,1 C -6,1 C 13,3 km/h (3 Bft)
10.03.2013 16:00 -3,2 C 93 % 1003,6 hPa 0,0 l/m 8,8 km/h (2 Bft) N-NO -4,2 C -5,9 C 13,3 km/h (3 Bft)
10.03.2013 17:00 -3,6 C 94 % 1004,1 hPa 0,0 l/m 10,0 km/h (2 Bft) N-NO -4,5 C -7,5 C 14,2 km/h (3 Bft)
10.03.2013 18:00 -4,0 C 94 % 1004,8 hPa 0,0 l/m 9,6 km/h (2 Bft) NO -4,9 C -7,4 C 13,7 km/h (3 Bft)
10.03.2013 19:00 -4,3 C 93 % 1005,5 hPa 0,0 l/m 9,0 km/h (2 Bft) N-NO -5,2 C -7,2 C 12,8 km/h (3 Bft)
10.03.2013 20:00 -4,8 C 93 % 1005,7 hPa 0,0 l/m 9,5 km/h (2 Bft) N-NO -5,8 C -8,3 C 13,2 km/h (3 Bft)
10.03.2013 21:00 -5,3 C 92 % 1006,0 hPa 0,0 l/m 9,2 km/h (2 Bft) N-NO -6,4 C -8,5 C 12,6 km/h (3 Bft)
10.03.2013 22:00 -5,4 C 91 % 1006,3 hPa 0,0 l/m 7,4 km/h (2 Bft) N-NO -6,6 C -6,6 C 10,2 km/h (2 Bft)
10.03.2013 23:00 -4,8 C 90 % 1006,5 hPa 0,0 l/m 7,1 km/h (2 Bft) N-NO -6,2 C -5,6 C 9,7 km/h (2 Bft)
Min-Datum _ 10.03.13 06.03.13 10.03.13 - 04.03.13 - 10.03.13 10.03.13 04.03.13
_ Min-Zeit 22:20 14:15 05:15 - 00:00 - 22:25 20:55 00:00
Minimum _ -5,6 C 41 % 1000,1 hPa - 0,0 km/h (0 Bft) - -6,8 C -9,2 C 0,0 km/h (0 Bft)
Max-Datum _ 06.03.13 04.03.13 04.03.13 09.03.13 07.03.13 - 06.03.13 06.03.13 07.03.13
_ Max-Zeit 14:20 08:20 09:25 17:10 15:20 - 14:55 14:20 12:45
Maximum _ 14,5 C 97 % 1024,4 hPa 1,0 l/m 19,3 km/h
O (3 Bft)
- 5,2 C 14,5 C 30,6 km/h
NO (5 Bft)
Durchschnitt _ 2,1 C 85 % 1008,7 hPa #6,8 l/m 5,9 km/h (2 Bft) O-NO -0,4 C 0,6 C 8,9 km/h (2 Bft)